sensor_id;sensor_type;location;lat;lon;timestamp;temperature;humidity
75281;HTU21D;63874;47.230;39.620;2023-04-03T00:01:18;10.64;54.29
75281;HTU21D;63874;47.230;39.620;2023-04-03T00:03:44;10.65;54.49
75281;HTU21D;63874;47.230;39.620;2023-04-03T00:06:11;10.65;54.33
75281;HTU21D;63874;47.230;39.620;2023-04-03T00:08:38;10.64;54.51
75281;HTU21D;63874;47.230;39.620;2023-04-03T00:11:05;10.62;54.53
75281;HTU21D;63874;47.230;39.620;2023-04-03T00:13:32;10.59;54.62
75281;HTU21D;63874;47.230;39.620;2023-04-03T00:15:58;10.57;54.76
75281;HTU21D;63874;47.230;39.620;2023-04-03T00:18:24;10.55;54.81
75281;HTU21D;63874;47.230;39.620;2023-04-03T00:20:50;10.55;54.95
75281;HTU21D;63874;47.230;39.620;2023-04-03T00:23:16;10.54;55.10
75281;HTU21D;63874;47.230;39.620;2023-04-03T00:25:42;10.55;55.10
75281;HTU21D;63874;47.230;39.620;2023-04-03T00:28:08;10.55;55.20
75281;HTU21D;63874;47.230;39.620;2023-04-03T00:30:35;10.56;55.23
75281;HTU21D;63874;47.230;39.620;2023-04-03T00:33:01;10.55;55.30
75281;HTU21D;63874;47.230;39.620;2023-04-03T00:35:27;10.51;55.49
75281;HTU21D;63874;47.230;39.620;2023-04-03T00:37:54;10.50;55.49
75281;HTU21D;63874;47.230;39.620;2023-04-03T00:40:23;10.50;55.51
75281;HTU21D;63874;47.230;39.620;2023-04-03T00:42:53;10.45;55.75
75281;HTU21D;63874;47.230;39.620;2023-04-03T00:45:36;10.49;55.70
75281;HTU21D;63874;47.230;39.620;2023-04-03T00:48:05;10.43;55.81
75281;HTU21D;63874;47.230;39.620;2023-04-03T00:50:34;10.44;56.00
75281;HTU21D;63874;47.230;39.620;2023-04-03T00:53:01;10.40;56.01
75281;HTU21D;63874;47.230;39.620;2023-04-03T00:55:27;10.41;56.03
75281;HTU21D;63874;47.230;39.620;2023-04-03T00:57:54;10.40;56.10
75281;HTU21D;63874;47.230;39.620;2023-04-03T01:00:21;10.40;56.07
75281;HTU21D;63874;47.230;39.620;2023-04-03T01:02:49;10.43;56.02
75281;HTU21D;63874;47.230;39.620;2023-04-03T01:05:16;10.42;55.98
75281;HTU21D;63874;47.230;39.620;2023-04-03T01:07:43;10.41;55.96
75281;HTU21D;63874;47.230;39.620;2023-04-03T01:10:11;10.35;56.12
75281;HTU21D;63874;47.230;39.620;2023-04-03T01:12:41;10.26;56.21
75281;HTU21D;63874;47.230;39.620;2023-04-03T01:15:15;10.22;56.26
75281;HTU21D;63874;47.230;39.620;2023-04-03T01:17:47;10.23;56.33
75281;HTU21D;63874;47.230;39.620;2023-04-03T01:25:36;10.28;56.40
75281;HTU21D;63874;47.230;39.620;2023-04-03T01:28:04;10.27;56.48
75281;HTU21D;63874;47.230;39.620;2023-04-03T01:30:32;10.28;56.44
75281;HTU21D;63874;47.230;39.620;2023-04-03T01:32:58;10.28;56.45
75281;HTU21D;63874;47.230;39.620;2023-04-03T01:35:24;10.27;56.55
75281;HTU21D;63874;47.230;39.620;2023-04-03T01:37:51;10.24;56.57
75281;HTU21D;63874;47.230;39.620;2023-04-03T01:40:17;10.24;56.53
75281;HTU21D;63874;47.230;39.620;2023-04-03T01:42:44;10.20;56.77
75281;HTU21D;63874;47.230;39.620;2023-04-03T01:45:11;10.18;56.87
75281;HTU21D;63874;47.230;39.620;2023-04-03T01:47:37;10.15;56.90
75281;HTU21D;63874;47.230;39.620;2023-04-03T01:50:04;10.15;56.96
75281;HTU21D;63874;47.230;39.620;2023-04-03T01:52:32;10.12;57.13
75281;HTU21D;63874;47.230;39.620;2023-04-03T01:54:58;10.11;57.22
75281;HTU21D;63874;47.230;39.620;2023-04-03T01:57:25;10.09;57.36
75281;HTU21D;63874;47.230;39.620;2023-04-03T01:59:51;10.09;57.32
75281;HTU21D;63874;47.230;39.620;2023-04-03T02:02:16;10.06;57.38
75281;HTU21D;63874;47.230;39.620;2023-04-03T02:04:42;10.06;57.45
75281;HTU21D;63874;47.230;39.620;2023-04-03T02:07:08;10.01;57.52
75281;HTU21D;63874;47.230;39.620;2023-04-03T02:09:34;9.99;57.53
75281;HTU21D;63874;47.230;39.620;2023-04-03T02:12:00;9.99;57.65
75281;HTU21D;63874;47.230;39.620;2023-04-03T02:14:26;10.00;57.57
75281;HTU21D;63874;47.230;39.620;2023-04-03T02:16:53;10.01;57.71
75281;HTU21D;63874;47.230;39.620;2023-04-03T02:19:21;9.97;57.71
75281;HTU21D;63874;47.230;39.620;2023-04-03T02:21:48;9.97;57.74
75281;HTU21D;63874;47.230;39.620;2023-04-03T02:24:14;9.90;57.77
75281;HTU21D;63874;47.230;39.620;2023-04-03T02:26:40;9.86;57.93
75281;HTU21D;63874;47.230;39.620;2023-04-03T02:29:06;9.83;57.94
75281;HTU21D;63874;47.230;39.620;2023-04-03T02:31:32;9.79;58.32
75281;HTU21D;63874;47.230;39.620;2023-04-03T02:34:00;9.74;58.39
75281;HTU21D;63874;47.230;39.620;2023-04-03T02:36:26;9.68;58.48
75281;HTU21D;63874;47.230;39.620;2023-04-03T02:38:57;9.68;58.48
75281;HTU21D;63874;47.230;39.620;2023-04-03T02:41:22;9.65;58.55
75281;HTU21D;63874;47.230;39.620;2023-04-03T02:43:51;9.64;58.57
75281;HTU21D;63874;47.230;39.620;2023-04-03T02:46:17;9.60;58.59
75281;HTU21D;63874;47.230;39.620;2023-04-03T02:48:43;9.54;58.70
75281;HTU21D;63874;47.230;39.620;2023-04-03T02:51:09;9.55;58.80
75281;HTU21D;63874;47.230;39.620;2023-04-03T02:53:35;9.54;58.88
75281;HTU21D;63874;47.230;39.620;2023-04-03T02:56:08;9.56;58.89
75281;HTU21D;63874;47.230;39.620;2023-04-03T02:58:33;9.55;58.83
75281;HTU21D;63874;47.230;39.620;2023-04-03T03:01:01;9.52;58.94
75281;HTU21D;63874;47.230;39.620;2023-04-03T03:03:27;9.48;58.96
75281;HTU21D;63874;47.230;39.620;2023-04-03T03:06:07;9.41;59.09
75281;HTU21D;63874;47.230;39.620;2023-04-03T03:08:33;9.37;59.12
75281;HTU21D;63874;47.230;39.620;2023-04-03T03:10:59;9.30;59.37
75281;HTU21D;63874;47.230;39.620;2023-04-03T03:13:27;9.24;59.50
75281;HTU21D;63874;47.230;39.620;2023-04-03T03:15:53;9.17;59.64
75281;HTU21D;63874;47.230;39.620;2023-04-03T03:18:19;9.14;60.02
75281;HTU21D;63874;47.230;39.620;2023-04-03T03:20:45;9.09;59.94
75281;HTU21D;63874;47.230;39.620;2023-04-03T03:23:11;9.07;60.14
75281;HTU21D;63874;47.230;39.620;2023-04-03T03:25:40;9.01;60.25
75281;HTU21D;63874;47.230;39.620;2023-04-03T03:28:07;8.96;60.35
75281;HTU21D;63874;47.230;39.620;2023-04-03T03:30:33;8.95;60.47
75281;HTU21D;63874;47.230;39.620;2023-04-03T03:32:59;8.90;60.70
75281;HTU21D;63874;47.230;39.620;2023-04-03T03:35:25;8.89;60.76
75281;HTU21D;63874;47.230;39.620;2023-04-03T03:37:51;8.86;60.76
75281;HTU21D;63874;47.230;39.620;2023-04-03T03:40:17;8.81;60.82
75281;HTU21D;63874;47.230;39.620;2023-04-03T03:42:43;8.79;60.89
75281;HTU21D;63874;47.230;39.620;2023-04-03T03:45:10;8.77;61.13
75281;HTU21D;63874;47.230;39.620;2023-04-03T03:47:36;8.81;61.07
75281;HTU21D;63874;47.230;39.620;2023-04-03T03:50:02;8.85;61.25
75281;HTU21D;63874;47.230;39.620;2023-04-03T03:52:28;8.92;61.28
75281;HTU21D;63874;47.230;39.620;2023-04-03T03:54:56;9.04;61.16
75281;HTU21D;63874;47.230;39.620;2023-04-03T03:57:22;9.17;61.05
75281;HTU21D;63874;47.230;39.620;2023-04-03T03:59:48;9.24;60.87
75281;HTU21D;63874;47.230;39.620;2023-04-03T04:02:17;9.36;60.84
75281;HTU21D;63874;47.230;39.620;2023-04-03T04:04:43;9.48;60.70
75281;HTU21D;63874;47.230;39.620;2023-04-03T04:07:09;9.63;60.46
75281;HTU21D;63874;47.230;39.620;2023-04-03T04:09:35;9.77;60.25
75281;HTU21D;63874;47.230;39.620;2023-04-03T04:12:01;9.89;59.97
75281;HTU21D;63874;47.230;39.620;2023-04-03T04:14:30;9.94;59.68
75281;HTU21D;63874;47.230;39.620;2023-04-03T04:16:56;9.97;59.41
75281;HTU21D;63874;47.230;39.620;2023-04-03T04:19:25;9.94;59.28
75281;HTU21D;63874;47.230;39.620;2023-04-03T04:21:50;9.93;59.23
75281;HTU21D;63874;47.230;39.620;2023-04-03T04:24:17;9.92;59.21
75281;HTU21D;63874;47.230;39.620;2023-04-03T04:26:43;9.86;59.13
75281;HTU21D;63874;47.230;39.620;2023-04-03T04:29:12;9.86;58.97
75281;HTU21D;63874;47.230;39.620;2023-04-03T04:31:38;9.80;59.03
75281;HTU21D;63874;47.230;39.620;2023-04-03T04:34:04;9.79;58.99
75281;HTU21D;63874;47.230;39.620;2023-04-03T04:36:31;9.77;58.91
75281;HTU21D;63874;47.230;39.620;2023-04-03T04:38:57;9.74;58.96
75281;HTU21D;63874;47.230;39.620;2023-04-03T04:41:26;9.70;58.96
75281;HTU21D;63874;47.230;39.620;2023-04-03T04:43:52;9.69;59.03
75281;HTU21D;63874;47.230;39.620;2023-04-03T04:46:18;9.70;59.12
75281;HTU21D;63874;47.230;39.620;2023-04-03T04:48:51;9.68;59.12
75281;HTU21D;63874;47.230;39.620;2023-04-03T04:51:19;9.63;59.35
75281;HTU21D;63874;47.230;39.620;2023-04-03T04:53:46;9.63;59.33
75281;HTU21D;63874;47.230;39.620;2023-04-03T04:56:14;9.61;59.33
75281;HTU21D;63874;47.230;39.620;2023-04-03T04:58:41;9.64;59.35
75281;HTU21D;63874;47.230;39.620;2023-04-03T05:01:09;9.63;59.36
75281;HTU21D;63874;47.230;39.620;2023-04-03T05:03:43;9.63;59.28
75281;HTU21D;63874;47.230;39.620;2023-04-03T05:06:09;9.62;59.31
75281;HTU21D;63874;47.230;39.620;2023-04-03T05:08:36;9.65;59.37
75281;HTU21D;63874;47.230;39.620;2023-04-03T05:11:03;9.69;59.35
75281;HTU21D;63874;47.230;39.620;2023-04-03T05:13:30;9.69;59.38
75281;HTU21D;63874;47.230;39.620;2023-04-03T05:15:56;9.69;59.42
75281;HTU21D;63874;47.230;39.620;2023-04-03T05:18:22;9.72;59.40
75281;HTU21D;63874;47.230;39.620;2023-04-03T05:20:50;9.74;59.41
75281;HTU21D;63874;47.230;39.620;2023-04-03T05:23:17;9.75;59.45
75281;HTU21D;63874;47.230;39.620;2023-04-03T05:25:44;9.79;59.44
75281;HTU21D;63874;47.230;39.620;2023-04-03T05:28:13;9.79;59.34
75281;HTU21D;63874;47.230;39.620;2023-04-03T05:30:39;9.80;59.37
75281;HTU21D;63874;47.230;39.620;2023-04-03T05:33:05;9.79;59.43
75281;HTU21D;63874;47.230;39.620;2023-04-03T05:35:38;9.79;59.48
75281;HTU21D;63874;47.230;39.620;2023-04-03T05:38:08;9.81;59.54
75281;HTU21D;63874;47.230;39.620;2023-04-03T05:40:34;9.88;59.57
75281;HTU21D;63874;47.230;39.620;2023-04-03T05:43:00;9.98;59.52
75281;HTU21D;63874;47.230;39.620;2023-04-03T05:45:30;10.04;59.44
75281;HTU21D;63874;47.230;39.620;2023-04-03T05:47:57;10.13;59.45
75281;HTU21D;63874;47.230;39.620;2023-04-03T05:50:23;10.24;59.41
75281;HTU21D;63874;47.230;39.620;2023-04-03T05:52:53;10.36;59.33
75281;HTU21D;63874;47.230;39.620;2023-04-03T05:55:20;10.49;59.25
75281;HTU21D;63874;47.230;39.620;2023-04-03T05:57:46;10.64;59.10
75281;HTU21D;63874;47.230;39.620;2023-04-03T06:00:15;10.75;58.95
75281;HTU21D;63874;47.230;39.620;2023-04-03T06:02:46;10.92;58.83
75281;HTU21D;63874;47.230;39.620;2023-04-03T06:05:17;11.08;58.74
75281;HTU21D;63874;47.230;39.620;2023-04-03T06:07:43;11.30;58.46
75281;HTU21D;63874;47.230;39.620;2023-04-03T06:10:12;11.44;58.26
75281;HTU21D;63874;47.230;39.620;2023-04-03T06:12:39;11.53;58.01
75281;HTU21D;63874;47.230;39.620;2023-04-03T06:15:06;11.57;58.05
75281;HTU21D;63874;47.230;39.620;2023-04-03T06:17:34;11.67;57.91
75281;HTU21D;63874;47.230;39.620;2023-04-03T06:20:00;11.75;57.93
75281;HTU21D;63874;47.230;39.620;2023-04-03T06:22:26;11.84;58.09
75281;HTU21D;63874;47.230;39.620;2023-04-03T06:24:56;12.05;58.25
75281;HTU21D;63874;47.230;39.620;2023-04-03T06:27:22;12.25;58.12
75281;HTU21D;63874;47.230;39.620;2023-04-03T06:29:48;12.43;58.26
75281;HTU21D;63874;47.230;39.620;2023-04-03T06:32:15;12.53;58.16
75281;HTU21D;63874;47.230;39.620;2023-04-03T06:34:41;12.60;58.13
75281;HTU21D;63874;47.230;39.620;2023-04-03T06:37:17;12.66;58.21
75281;HTU21D;63874;47.230;39.620;2023-04-03T06:39:44;12.73;58.31
75281;HTU21D;63874;47.230;39.620;2023-04-03T06:42:10;12.85;58.38
75281;HTU21D;63874;47.230;39.620;2023-04-03T06:44:45;13.03;58.25
75281;HTU21D;63874;47.230;39.620;2023-04-03T06:47:13;13.23;58.13
75281;HTU21D;63874;47.230;39.620;2023-04-03T06:49:39;13.38;57.94
75281;HTU21D;63874;47.230;39.620;2023-04-03T06:52:05;13.48;57.88
75281;HTU21D;63874;47.230;39.620;2023-04-03T06:54:31;13.54;57.77
75281;HTU21D;63874;47.230;39.620;2023-04-03T06:56:57;13.64;57.69
75281;HTU21D;63874;47.230;39.620;2023-04-03T06:59:23;13.74;57.53
75281;HTU21D;63874;47.230;39.620;2023-04-03T07:01:49;13.86;57.32
75281;HTU21D;63874;47.230;39.620;2023-04-03T07:04:15;13.94;57.15
75281;HTU21D;63874;47.230;39.620;2023-04-03T07:06:41;13.98;57.09
75281;HTU21D;63874;47.230;39.620;2023-04-03T07:09:09;13.99;57.24
75281;HTU21D;63874;47.230;39.620;2023-04-03T07:11:37;13.89;57.41
75281;HTU21D;63874;47.230;39.620;2023-04-03T07:14:03;13.81;57.80
75281;HTU21D;63874;47.230;39.620;2023-04-03T07:16:29;13.75;58.20
75281;HTU21D;63874;47.230;39.620;2023-04-03T07:18:57;13.70;58.47
75281;HTU21D;63874;47.230;39.620;2023-04-03T07:21:24;13.71;58.79
75281;HTU21D;63874;47.230;39.620;2023-04-03T07:23:50;13.78;58.91
75281;HTU21D;63874;47.230;39.620;2023-04-03T07:26:17;13.88;59.06
75281;HTU21D;63874;47.230;39.620;2023-04-03T07:28:43;13.97;59.05
75281;HTU21D;63874;47.230;39.620;2023-04-03T07:31:13;14.08;59.25
75281;HTU21D;63874;47.230;39.620;2023-04-03T07:33:39;14.25;59.20
75281;HTU21D;63874;47.230;39.620;2023-04-03T07:36:06;14.38;59.08
75281;HTU21D;63874;47.230;39.620;2023-04-03T07:38:33;14.47;58.80
75281;HTU21D;63874;47.230;39.620;2023-04-03T07:41:00;14.56;58.78
75281;HTU21D;63874;47.230;39.620;2023-04-03T07:43:26;14.68;58.67
75281;HTU21D;63874;47.230;39.620;2023-04-03T07:45:52;14.81;58.45
75281;HTU21D;63874;47.230;39.620;2023-04-03T07:48:23;15.03;58.41
75281;HTU21D;63874;47.230;39.620;2023-04-03T07:50:50;15.42;57.96
75281;HTU21D;63874;47.230;39.620;2023-04-03T07:53:16;15.80;57.10
75281;HTU21D;63874;47.230;39.620;2023-04-03T07:55:42;15.96;56.34
75281;HTU21D;63874;47.230;39.620;2023-04-03T07:58:12;15.99;56.29
75281;HTU21D;63874;47.230;39.620;2023-04-03T08:00:38;16.07;56.23
75281;HTU21D;63874;47.230;39.620;2023-04-03T08:03:05;16.27;56.07
75281;HTU21D;63874;47.230;39.620;2023-04-03T08:05:31;16.48;55.61
75281;HTU21D;63874;47.230;39.620;2023-04-03T08:07:57;16.55;55.26
75281;HTU21D;63874;47.230;39.620;2023-04-03T08:10:23;16.50;54.84
75281;HTU21D;63874;47.230;39.620;2023-04-03T08:12:49;16.42;54.69
75281;HTU21D;63874;47.230;39.620;2023-04-03T08:15:16;16.36;54.71
75281;HTU21D;63874;47.230;39.620;2023-04-03T08:17:42;16.33;54.69
75281;HTU21D;63874;47.230;39.620;2023-04-03T08:20:10;16.27;54.91
75281;HTU21D;63874;47.230;39.620;2023-04-03T08:22:35;16.20;55.09
75281;HTU21D;63874;47.230;39.620;2023-04-03T08:25:01;16.13;55.21
75281;HTU21D;63874;47.230;39.620;2023-04-03T08:27:27;16.02;55.49
75281;HTU21D;63874;47.230;39.620;2023-04-03T08:29:55;15.95;55.58
75281;HTU21D;63874;47.230;39.620;2023-04-03T08:32:21;15.90;55.71
75281;HTU21D;63874;47.230;39.620;2023-04-03T08:34:47;15.84;55.84
75281;HTU21D;63874;47.230;39.620;2023-04-03T08:37:13;15.84;55.85
75281;HTU21D;63874;47.230;39.620;2023-04-03T08:39:39;15.83;55.86
75281;HTU21D;63874;47.230;39.620;2023-04-03T08:42:14;15.84;55.74
75281;HTU21D;63874;47.230;39.620;2023-04-03T08:48:04;15.90;55.36
75281;HTU21D;63874;47.230;39.620;2023-04-03T08:50:37;15.97;55.40
75281;HTU21D;63874;47.230;39.620;2023-04-03T08:53:06;16.06;55.44
75281;HTU21D;63874;47.230;39.620;2023-04-03T08:55:43;16.19;55.21
75281;HTU21D;63874;47.230;39.620;2023-04-03T08:58:16;16.36;55.04
75281;HTU21D;63874;47.230;39.620;2023-04-03T09:00:50;16.56;54.78
75281;HTU21D;63874;47.230;39.620;2023-04-03T09:03:19;16.71;54.49
75281;HTU21D;63874;47.230;39.620;2023-04-03T09:05:52;16.85;54.22
75281;HTU21D;63874;47.230;39.620;2023-04-03T09:10:49;16.81;54.20
75281;HTU21D;63874;47.230;39.620;2023-04-03T09:13:29;16.76;54.26
75281;HTU21D;63874;47.230;39.620;2023-04-03T09:15:56;16.69;54.39
75281;HTU21D;63874;47.230;39.620;2023-04-03T09:18:32;16.61;54.60
75281;HTU21D;63874;47.230;39.620;2023-04-03T09:21:17;16.60;54.32
75281;HTU21D;63874;47.230;39.620;2023-04-03T09:23:49;16.54;54.22
75281;HTU21D;63874;47.230;39.620;2023-04-03T09:26:25;16.39;54.38
75281;HTU21D;63874;47.230;39.620;2023-04-03T09:28:54;16.27;54.69
75281;HTU21D;63874;47.230;39.620;2023-04-03T09:31:27;16.17;54.94
75281;HTU21D;63874;47.230;39.620;2023-04-03T09:33:54;16.10;55.19
75281;HTU21D;63874;47.230;39.620;2023-04-03T09:36:58;16.03;55.40
75281;HTU21D;63874;47.230;39.620;2023-04-03T09:39:27;16.01;55.65
75281;HTU21D;63874;47.230;39.620;2023-04-03T09:42:05;16.11;55.68
75281;HTU21D;63874;47.230;39.620;2023-04-03T09:44:37;16.19;55.54
75281;HTU21D;63874;47.230;39.620;2023-04-03T09:47:29;16.25;55.61
75281;HTU21D;63874;47.230;39.620;2023-04-03T09:50:17;16.33;55.38
75281;HTU21D;63874;47.230;39.620;2023-04-03T09:52:47;16.36;55.39
75281;HTU21D;63874;47.230;39.620;2023-04-03T09:55:14;16.41;55.34
75281;HTU21D;63874;47.230;39.620;2023-04-03T09:57:40;16.36;55.40
75281;HTU21D;63874;47.230;39.620;2023-04-03T10:00:20;16.35;55.42
75281;HTU21D;63874;47.230;39.620;2023-04-03T10:02:51;16.34;55.50
75281;HTU21D;63874;47.230;39.620;2023-04-03T10:05:37;16.34;55.64
75281;HTU21D;63874;47.230;39.620;2023-04-03T10:10:45;16.46;55.74
75281;HTU21D;63874;47.230;39.620;2023-04-03T10:13:17;16.55;55.67
75281;HTU21D;63874;47.230;39.620;2023-04-03T10:15:55;16.66;55.61
75281;HTU21D;63874;47.230;39.620;2023-04-03T10:21:29;16.80;55.20
75281;HTU21D;63874;47.230;39.620;2023-04-03T10:24:06;16.72;55.02
75281;HTU21D;63874;47.230;39.620;2023-04-03T10:34:53;16.25;56.00
75281;HTU21D;63874;47.230;39.620;2023-04-03T10:51:21;17.37;54.34
75281;HTU21D;63874;47.230;39.620;2023-04-03T10:54:08;17.25;54.30
75281;HTU21D;63874;47.230;39.620;2023-04-03T10:57:01;17.14;54.47
75281;HTU21D;63874;47.230;39.620;2023-04-03T11:02:52;16.82;55.23
75281;HTU21D;63874;47.230;39.620;2023-04-03T11:07:38;16.60;55.70
75281;HTU21D;63874;47.230;39.620;2023-04-03T11:13:00;16.30;56.45
75281;HTU21D;63874;47.230;39.620;2023-04-03T11:15:29;16.17;56.88
75281;HTU21D;63874;47.230;39.620;2023-04-03T11:18:02;16.14;57.17
75281;HTU21D;63874;47.230;39.620;2023-04-03T11:20:31;16.08;58.08
75281;HTU21D;63874;47.230;39.620;2023-04-03T11:25:40;15.86;58.58
75281;HTU21D;63874;47.230;39.620;2023-04-03T11:28:12;15.74;59.20
75281;HTU21D;63874;47.230;39.620;2023-04-03T11:30:54;15.62;59.17
75281;HTU21D;63874;47.230;39.620;2023-04-03T11:36:25;15.55;60.11
75281;HTU21D;63874;47.230;39.620;2023-04-03T11:38:55;15.68;59.84
75281;HTU21D;63874;47.230;39.620;2023-04-03T11:41:28;15.98;59.77
75281;HTU21D;63874;47.230;39.620;2023-04-03T11:44:02;16.14;59.65
75281;HTU21D;63874;47.230;39.620;2023-04-03T11:46:57;16.17;60.57
75281;HTU21D;63874;47.230;39.620;2023-04-03T11:49:55;16.14;59.70
75281;HTU21D;63874;47.230;39.620;2023-04-03T12:08:44;16.62;58.13
75281;HTU21D;63874;47.230;39.620;2023-04-03T12:16:26;17.03;56.86
75281;HTU21D;63874;47.230;39.620;2023-04-03T12:35:10;17.02;54.94
75281;HTU21D;63874;47.230;39.620;2023-04-03T12:37:54;16.87;54.96
75281;HTU21D;63874;47.230;39.620;2023-04-03T12:43:20;16.43;55.72
75281;HTU21D;63874;47.230;39.620;2023-04-03T12:51:35;16.00;57.15
75281;HTU21D;63874;47.230;39.620;2023-04-03T12:54:27;15.98;57.13
75281;HTU21D;63874;47.230;39.620;2023-04-03T12:57:22;15.96;57.27
75281;HTU21D;63874;47.230;39.620;2023-04-03T12:59:49;15.98;57.29
75281;HTU21D;63874;47.230;39.620;2023-04-03T13:04:44;15.91;57.37
75281;HTU21D;63874;47.230;39.620;2023-04-03T13:07:27;15.77;57.52
75281;HTU21D;63874;47.230;39.620;2023-04-03T13:12:34;15.55;58.10
75281;HTU21D;63874;47.230;39.620;2023-04-03T13:15:11;15.42;58.61
75281;HTU21D;63874;47.230;39.620;2023-04-03T13:17:39;15.32;58.78
75281;HTU21D;63874;47.230;39.620;2023-04-03T13:20:14;15.27;58.87
75281;HTU21D;63874;47.230;39.620;2023-04-03T13:25:13;15.19;59.62
75281;HTU21D;63874;47.230;39.620;2023-04-03T13:27:39;15.11;59.33
75281;HTU21D;63874;47.230;39.620;2023-04-03T13:30:29;15.14;59.77
75281;HTU21D;63874;47.230;39.620;2023-04-03T13:32:57;15.31;60.13
75281;HTU21D;63874;47.230;39.620;2023-04-03T13:35:45;15.46;59.78
75281;HTU21D;63874;47.230;39.620;2023-04-03T13:40:49;15.52;59.59
75281;HTU21D;63874;47.230;39.620;2023-04-03T13:43:27;15.51;59.64
75281;HTU21D;63874;47.230;39.620;2023-04-03T13:48:46;15.51;59.50
75281;HTU21D;63874;47.230;39.620;2023-04-03T13:53:44;15.23;59.76
75281;HTU21D;63874;47.230;39.620;2023-04-03T13:56:25;15.07;60.00
75281;HTU21D;63874;47.230;39.620;2023-04-03T13:58:56;14.94;60.24
75281;HTU21D;63874;47.230;39.620;2023-04-03T14:01:22;14.82;60.49
75281;HTU21D;63874;47.230;39.620;2023-04-03T14:04:13;14.70;60.76
75281;HTU21D;63874;47.230;39.620;2023-04-03T14:06:40;14.63;60.98
75281;HTU21D;63874;47.230;39.620;2023-04-03T14:09:06;14.57;61.14
75281;HTU21D;63874;47.230;39.620;2023-04-03T14:11:35;14.55;61.23
75281;HTU21D;63874;47.230;39.620;2023-04-03T14:14:06;14.55;61.52
75281;HTU21D;63874;47.230;39.620;2023-04-03T14:16:38;14.56;61.56
75281;HTU21D;63874;47.230;39.620;2023-04-03T14:19:05;14.54;61.60
75281;HTU21D;63874;47.230;39.620;2023-04-03T14:21:31;14.50;61.76
75281;HTU21D;63874;47.230;39.620;2023-04-03T14:23:58;14.49;61.89
75281;HTU21D;63874;47.230;39.620;2023-04-03T14:26:24;14.45;62.01
75281;HTU21D;63874;47.230;39.620;2023-04-03T14:28:54;14.45;62.05
75281;HTU21D;63874;47.230;39.620;2023-04-03T14:31:21;14.41;62.07
75281;HTU21D;63874;47.230;39.620;2023-04-03T14:33:47;14.40;62.13
75281;HTU21D;63874;47.230;39.620;2023-04-03T14:36:22;14.37;62.19
75281;HTU21D;63874;47.230;39.620;2023-04-03T14:38:49;14.38;62.20
75281;HTU21D;63874;47.230;39.620;2023-04-03T14:41:18;14.37;62.21
75281;HTU21D;63874;47.230;39.620;2023-04-03T14:43:44;14.37;62.30
75281;HTU21D;63874;47.230;39.620;2023-04-03T14:48:40;14.33;62.42
75281;HTU21D;63874;47.230;39.620;2023-04-03T14:51:06;14.30;62.50
75281;HTU21D;63874;47.230;39.620;2023-04-03T14:53:32;14.29;62.52
75281;HTU21D;63874;47.230;39.620;2023-04-03T14:55:58;14.30;62.49
75281;HTU21D;63874;47.230;39.620;2023-04-03T14:58:24;14.28;62.49
75281;HTU21D;63874;47.230;39.620;2023-04-03T15:00:50;14.26;62.58
75281;HTU21D;63874;47.230;39.620;2023-04-03T15:03:18;14.23;62.64
75281;HTU21D;63874;47.230;39.620;2023-04-03T15:05:45;14.21;62.61
75281;HTU21D;63874;47.230;39.620;2023-04-03T15:08:23;14.17;62.62
75281;HTU21D;63874;47.230;39.620;2023-04-03T15:10:51;14.12;62.73
75281;HTU21D;63874;47.230;39.620;2023-04-03T15:13:19;14.10;62.81
75281;HTU21D;63874;47.230;39.620;2023-04-03T15:15:46;14.05;62.89
75281;HTU21D;63874;47.230;39.620;2023-04-03T15:18:21;14.00;62.95
75281;HTU21D;63874;47.230;39.620;2023-04-03T15:20:48;13.96;63.01
75281;HTU21D;63874;47.230;39.620;2023-04-03T15:23:15;13.93;63.08
75281;HTU21D;63874;47.230;39.620;2023-04-03T15:25:46;13.85;63.22
75281;HTU21D;63874;47.230;39.620;2023-04-03T15:30:59;13.77;63.27
75281;HTU21D;63874;47.230;39.620;2023-04-03T15:33:26;13.73;63.40
75281;HTU21D;63874;47.230;39.620;2023-04-03T15:35:52;13.71;63.44
75281;HTU21D;63874;47.230;39.620;2023-04-03T15:38:18;13.69;63.47
75281;HTU21D;63874;47.230;39.620;2023-04-03T15:40:45;13.66;63.49
75281;HTU21D;63874;47.230;39.620;2023-04-03T15:43:12;13.66;63.60
75281;HTU21D;63874;47.230;39.620;2023-04-03T15:45:39;13.65;63.60
75281;HTU21D;63874;47.230;39.620;2023-04-03T15:48:05;13.63;63.65
75281;HTU21D;63874;47.230;39.620;2023-04-03T15:50:33;13.61;63.75
75281;HTU21D;63874;47.230;39.620;2023-04-03T15:53:00;13.60;63.78
75281;HTU21D;63874;47.230;39.620;2023-04-03T15:55:29;13.60;63.82
75281;HTU21D;63874;47.230;39.620;2023-04-03T15:57:55;13.61;63.86
75281;HTU21D;63874;47.230;39.620;2023-04-03T16:00:23;13.60;63.86
75281;HTU21D;63874;47.230;39.620;2023-04-03T16:02:53;13.60;63.92
75281;HTU21D;63874;47.230;39.620;2023-04-03T16:05:21;13.58;63.89
75281;HTU21D;63874;47.230;39.620;2023-04-03T16:07:47;13.58;63.85
75281;HTU21D;63874;47.230;39.620;2023-04-03T16:10:16;13.58;63.89
75281;HTU21D;63874;47.230;39.620;2023-04-03T16:12:42;13.55;63.92
75281;HTU21D;63874;47.230;39.620;2023-04-03T16:15:09;13.55;63.99
75281;HTU21D;63874;47.230;39.620;2023-04-03T16:17:37;13.52;64.02
75281;HTU21D;63874;47.230;39.620;2023-04-03T16:20:05;13.52;64.14
75281;HTU21D;63874;47.230;39.620;2023-04-03T16:22:31;13.50;64.11
75281;HTU21D;63874;47.230;39.620;2023-04-03T16:24:58;13.49;64.11
75281;HTU21D;63874;47.230;39.620;2023-04-03T16:27:24;13.48;64.18
75281;HTU21D;63874;47.230;39.620;2023-04-03T16:29:57;13.49;64.18
75281;HTU21D;63874;47.230;39.620;2023-04-03T16:32:25;13.48;64.21
75281;HTU21D;63874;47.230;39.620;2023-04-03T16:34:53;13.49;64.24
75281;HTU21D;63874;47.230;39.620;2023-04-03T16:37:23;13.49;64.27
75281;HTU21D;63874;47.230;39.620;2023-04-03T16:39:49;13.50;64.23
75281;HTU21D;63874;47.230;39.620;2023-04-03T16:42:15;13.50;64.33
75281;HTU21D;63874;47.230;39.620;2023-04-03T16:44:41;13.49;64.47
75281;HTU21D;63874;47.230;39.620;2023-04-03T16:47:10;13.45;64.66
75281;HTU21D;63874;47.230;39.620;2023-04-03T16:49:39;13.44;64.88
75281;HTU21D;63874;47.230;39.620;2023-04-03T16:52:13;13.41;64.98
75281;HTU21D;63874;47.230;39.620;2023-04-03T16:54:39;13.36;64.98
75281;HTU21D;63874;47.230;39.620;2023-04-03T16:57:05;13.33;65.17
75281;HTU21D;63874;47.230;39.620;2023-04-03T16:59:32;13.31;65.33
75281;HTU21D;63874;47.230;39.620;2023-04-03T17:01:57;13.24;65.42
75281;HTU21D;63874;47.230;39.620;2023-04-03T17:04:23;13.22;65.59
75281;HTU21D;63874;47.230;39.620;2023-04-03T17:06:50;13.20;65.69
75281;HTU21D;63874;47.230;39.620;2023-04-03T17:09:17;13.20;65.82
75281;HTU21D;63874;47.230;39.620;2023-04-03T17:11:43;13.21;65.92
75281;HTU21D;63874;47.230;39.620;2023-04-03T17:14:09;13.20;65.94
75281;HTU21D;63874;47.230;39.620;2023-04-03T17:16:37;13.21;65.99